createdAt,value
2022-07-29T00:00:04.657Z,3.57
2022-07-29T00:02:32.970Z,3.47
2022-07-29T00:05:00.632Z,3.60
2022-07-29T00:07:28.226Z,3.13
2022-07-29T00:09:55.816Z,3.50
2022-07-29T00:12:26.251Z,3.40
2022-07-29T00:14:56.447Z,3.33
2022-07-29T00:17:24.419Z,3.30
2022-07-29T00:19:52.037Z,3.67
2022-07-29T00:22:19.696Z,3.37
2022-07-29T00:24:48.770Z,3.37
2022-07-29T00:27:16.370Z,3.60
2022-07-29T00:29:43.925Z,3.30
2022-07-29T00:32:12.887Z,3.37
2022-07-29T00:34:57.623Z,3.23
2022-07-29T00:37:25.390Z,3.10
2022-07-29T00:39:53.028Z,3.30
2022-07-29T00:42:20.804Z,3.50
2022-07-29T00:44:48.386Z,3.43
2022-07-29T00:47:17.355Z,3.37
2022-07-29T00:49:45.126Z,3.43
2022-07-29T00:52:12.983Z,3.30
2022-07-29T00:54:45.086Z,3.23
2022-07-29T00:57:13.299Z,3.40
2022-07-29T00:59:41.455Z,3.33
2022-07-29T01:02:09.121Z,3.17
2022-07-29T01:04:38.244Z,3.33
2022-07-29T01:07:06.075Z,3.23
2022-07-29T01:09:42.014Z,3.50
2022-07-29T01:12:15.413Z,3.20
2022-07-29T01:14:43.642Z,2.80
2022-07-29T01:17:13.907Z,3.00
2022-07-29T01:19:50.710Z,3.23
2022-07-29T01:22:27.084Z,3.43
2022-07-29T01:25:04.336Z,3.40
2022-07-29T01:27:40.464Z,3.50
2022-07-29T01:30:11.696Z,3.00
2022-07-29T01:32:42.992Z,2.93
2022-07-29T01:35:13.241Z,3.10
2022-07-29T01:37:48.836Z,3.03
2022-07-29T01:40:22.044Z,3.07
2022-07-29T01:42:52.108Z,3.30
2022-07-29T01:45:23.055Z,3.17
2022-07-29T01:47:55.023Z,2.90
2022-07-29T01:50:25.118Z,3.23
2022-07-29T01:52:56.181Z,3.17
2022-07-29T01:55:24.896Z,3.60
2022-07-29T01:57:52.495Z,3.00
2022-07-29T02:00:22.350Z,3.00
2022-07-29T02:02:50.535Z,2.90
2022-07-29T02:05:20.687Z,3.23
2022-07-29T02:07:48.878Z,3.20
2022-07-29T02:10:17.287Z,3.17
2022-07-29T02:12:50.933Z,3.10
2022-07-29T02:15:18.985Z,3.00
2022-07-29T02:17:50.276Z,3.47
2022-07-29T02:20:18.111Z,3.20
2022-07-29T02:22:46.303Z,3.27
2022-07-29T02:25:14.416Z,3.53
2022-07-29T02:27:43.387Z,3.43
2022-07-29T02:30:12.411Z,3.30
2022-07-29T02:32:41.862Z,3.60
2022-07-29T02:35:12.044Z,3.03
2022-07-29T02:37:40.059Z,3.07
2022-07-29T02:40:10.335Z,2.73
2022-07-29T02:42:38.580Z,2.70
2022-07-29T02:45:09.016Z,3.13
2022-07-29T02:47:41.916Z,2.70
2022-07-29T02:50:13.353Z,2.50
2022-07-29T02:52:43.389Z,2.80
2022-07-29T02:55:15.424Z,2.67
2022-07-29T02:57:54.794Z,2.70
2022-07-29T03:00:23.944Z,2.43
2022-07-29T03:02:54.415Z,2.67
2022-07-29T03:05:24.411Z,2.80
2022-07-29T03:07:54.692Z,2.73
2022-07-29T03:10:22.934Z,3.00
2022-07-29T03:12:50.688Z,3.00
2022-07-29T03:15:18.350Z,2.80
2022-07-29T03:17:46.179Z,2.60
2022-07-29T03:20:14.679Z,2.60
2022-07-29T03:22:44.736Z,2.17
2022-07-29T03:25:12.895Z,2.20
2022-07-29T03:27:40.564Z,2.57
2022-07-29T03:30:09.030Z,2.40
2022-07-29T03:32:36.723Z,2.60
2022-07-29T03:35:05.042Z,2.50
2022-07-29T03:37:34.298Z,2.50
2022-07-29T03:40:05.270Z,5.00
2022-07-29T03:42:34.459Z,2.67
2022-07-29T03:45:03.902Z,2.00
2022-07-29T03:47:43.528Z,2.73
2022-07-29T03:50:20.214Z,2.40
2022-07-29T03:52:47.880Z,3.17
2022-07-29T03:55:17.154Z,2.40
2022-07-29T03:57:45.047Z,2.70
2022-07-29T04:00:13.181Z,2.73
2022-07-29T04:02:41.600Z,3.33
2022-07-29T04:05:13.880Z,3.10
2022-07-29T04:07:41.509Z,3.20
2022-07-29T04:10:09.784Z,5.37
2022-07-29T04:12:38.801Z,3.47
2022-07-29T04:15:06.781Z,3.73
2022-07-29T04:17:34.360Z,3.40
2022-07-29T04:20:01.934Z,4.03
2022-07-29T04:22:29.584Z,3.73
2022-07-29T04:25:01.693Z,3.40
2022-07-29T04:27:31.207Z,3.87
2022-07-29T04:30:00.587Z,3.60
2022-07-29T04:32:28.276Z,3.43
2022-07-29T04:34:55.902Z,3.70
2022-07-29T04:37:23.470Z,3.43
2022-07-29T04:39:51.518Z,3.50
2022-07-29T04:42:19.092Z,3.50
2022-07-29T04:44:55.200Z,3.17
2022-07-29T04:47:24.271Z,3.40
2022-07-29T04:49:51.855Z,3.13
2022-07-29T04:52:19.432Z,3.37
2022-07-29T04:54:47.032Z,3.70
2022-07-29T04:57:14.639Z,3.63
2022-07-29T04:59:42.243Z,3.10
2022-07-29T05:02:09.832Z,2.90
2022-07-29T05:04:38.798Z,3.67
2022-07-29T05:07:06.371Z,3.03
2022-07-29T05:09:33.995Z,3.30
2022-07-29T05:12:01.556Z,3.30
2022-07-29T05:14:29.122Z,3.33
2022-07-29T05:16:57.967Z,3.47
2022-07-29T05:19:25.620Z,3.20
2022-07-29T05:21:54.543Z,3.30
2022-07-29T05:24:22.141Z,5.53
2022-07-29T05:26:49.715Z,6.77
2022-07-29T05:29:42.614Z,5.97
2022-07-29T05:32:05.166Z,4.10
2022-07-29T05:34:32.807Z,7.17
2022-07-29T05:37:01.787Z,4.30
2022-07-29T05:39:47.603Z,3.73
2022-07-29T05:42:16.742Z,7.17
2022-07-29T05:44:44.310Z,4.70
2022-07-29T05:47:12.401Z,4.57
2022-07-29T05:49:39.976Z,3.90
2022-07-29T05:52:08.972Z,4.27
2022-07-29T05:54:36.572Z,5.30
2022-07-29T05:57:04.247Z,4.07
2022-07-29T05:59:31.976Z,5.00
2022-07-29T06:01:59.666Z,4.20
2022-07-29T06:04:27.324Z,4.27
2022-07-29T06:06:55.007Z,4.30
2022-07-29T06:09:24.084Z,3.83
2022-07-29T06:11:51.683Z,3.60
2022-07-29T06:14:19.662Z,4.13
2022-07-29T06:16:47.454Z,4.10
2022-07-29T06:19:15.067Z,3.90
2022-07-29T06:21:44.384Z,4.40
2022-07-29T06:24:13.255Z,3.73
2022-07-29T06:26:42.803Z,5.00
2022-07-29T06:29:11.489Z,4.03
2022-07-29T06:31:39.275Z,4.37
2022-07-29T06:34:06.859Z,4.27
2022-07-29T06:36:36.308Z,3.87
2022-07-29T06:39:06.184Z,3.90
2022-07-29T06:41:34.029Z,3.70
2022-07-29T06:44:11.545Z,3.80
2022-07-29T06:46:39.180Z,3.80
2022-07-29T06:49:06.871Z,3.70
2022-07-29T06:51:34.495Z,3.80
2022-07-29T06:54:03.727Z,4.63
2022-07-29T06:56:32.255Z,3.80
2022-07-29T06:59:06.460Z,3.43
2022-07-29T07:01:35.727Z,4.10
2022-07-29T07:04:03.460Z,4.00
2022-07-29T07:06:31.297Z,4.47
2022-07-29T07:08:58.862Z,4.43
2022-07-29T07:11:26.478Z,3.90
2022-07-29T07:13:54.845Z,3.33
2022-07-29T07:16:24.721Z,3.10
2022-07-29T07:18:53.665Z,3.63
2022-07-29T07:21:21.271Z,3.27
2022-07-29T07:23:48.852Z,3.80
2022-07-29T07:26:16.672Z,3.90
2022-07-29T07:28:44.273Z,3.50
2022-07-29T07:31:12.262Z,3.60
2022-07-29T07:33:39.852Z,3.50
2022-07-29T07:36:08.865Z,3.33
2022-07-29T07:38:36.455Z,3.77
2022-07-29T07:41:04.084Z,3.73
2022-07-29T07:43:31.643Z,4.30
2022-07-29T07:45:59.462Z,3.00
2022-07-29T07:48:27.041Z,2.80
2022-07-29T07:50:54.628Z,3.20
2022-07-29T07:53:24.540Z,3.60
2022-07-29T07:58:39.977Z,3.03
2022-07-29T08:01:07.827Z,3.47
2022-07-29T08:03:35.680Z,3.57
2022-07-29T08:06:03.294Z,3.10
2022-07-29T08:08:32.575Z,3.33
2022-07-29T08:11:08.285Z,2.93
2022-07-29T08:13:36.504Z,3.00
2022-07-29T08:16:12.467Z,5.00
2022-07-29T08:18:40.955Z,3.20
2022-07-29T08:21:08.528Z,3.10
2022-07-29T08:23:46.052Z,3.03
2022-07-29T08:26:16.444Z,2.90
2022-07-29T08:28:46.449Z,3.17
2022-07-29T08:31:14.653Z,3.37
2022-07-29T08:33:42.315Z,3.30
2022-07-29T08:36:10.534Z,3.83
2022-07-29T08:38:39.594Z,4.00
2022-07-29T08:41:07.544Z,3.17
2022-07-29T08:43:38.145Z,3.83
2022-07-29T08:46:05.771Z,4.13
2022-07-29T08:48:33.782Z,3.97
2022-07-29T08:51:02.491Z,4.33
2022-07-29T08:53:32.098Z,3.87
2022-07-29T08:56:01.364Z,3.57
2022-07-29T08:58:33.269Z,4.20
2022-07-29T09:01:05.538Z,3.83
2022-07-29T09:03:36.535Z,3.23
2022-07-29T09:06:04.270Z,4.33
2022-07-29T09:08:32.560Z,3.83
2022-07-29T09:11:04.091Z,4.03
2022-07-29T09:13:33.254Z,3.47
2022-07-29T09:16:04.486Z,4.30
2022-07-29T09:18:35.211Z,3.87
2022-07-29T09:21:20.198Z,5.93
2022-07-29T09:24:01.444Z,3.93
2022-07-29T09:26:31.707Z,3.57
2022-07-29T09:29:00.034Z,3.67
2022-07-29T09:31:34.407Z,3.37
2022-07-29T09:34:02.259Z,3.27
2022-07-29T09:36:30.322Z,3.50
2022-07-29T09:39:01.477Z,2.93
2022-07-29T09:41:29.419Z,3.20
2022-07-29T09:43:59.575Z,3.17
2022-07-29T09:46:27.641Z,2.67
2022-07-29T09:49:07.994Z,2.50
2022-07-29T09:51:38.040Z,2.70
2022-07-29T09:54:23.266Z,3.03
2022-07-29T09:56:51.048Z,2.75
2022-07-29T09:59:21.279Z,2.97
2022-07-29T10:01:50.292Z,2.67
2022-07-29T10:04:18.040Z,2.67
2022-07-29T10:07:04.353Z,3.00
2022-07-29T10:09:32.898Z,2.70
2022-07-29T10:12:11.751Z,2.77
2022-07-29T10:14:40.709Z,2.90
2022-07-29T10:17:09.197Z,2.90
2022-07-29T10:19:37.865Z,3.00
2022-07-29T10:22:08.566Z,2.78
2022-07-29T10:24:36.771Z,3.30
2022-07-29T10:27:04.964Z,2.80
2022-07-29T10:29:32.721Z,2.70
2022-07-29T10:32:23.680Z,2.90
2022-07-29T10:35:14.015Z,2.70
2022-07-29T10:37:48.641Z,2.85
2022-07-29T10:40:37.199Z,2.80
2022-07-29T10:43:16.771Z,2.60
2022-07-29T10:45:45.259Z,2.80
2022-07-29T10:48:14.268Z,3.10
2022-07-29T10:50:55.710Z,2.78
2022-07-29T10:53:24.651Z,2.80
2022-07-29T10:58:41.122Z,2.63
2022-07-29T11:01:37.431Z,2.97
2022-07-29T11:04:08.198Z,2.58
2022-07-29T11:06:50.680Z,2.72
2022-07-29T11:09:19.964Z,2.60
2022-07-29T11:11:58.163Z,2.70
2022-07-29T11:14:42.846Z,2.90
2022-07-29T11:17:11.229Z,3.30
2022-07-29T11:19:46.779Z,2.85
2022-07-29T11:22:33.993Z,3.55
2022-07-29T11:25:14.944Z,2.92
2022-07-29T11:27:44.795Z,2.90
2022-07-29T11:30:14.509Z,3.03
2022-07-29T11:32:44.615Z,2.80
2022-07-29T11:35:17.860Z,2.70
2022-07-29T11:37:52.502Z,2.78
2022-07-29T11:40:23.664Z,2.78
2022-07-29T11:42:51.886Z,2.80
2022-07-29T11:45:42.759Z,2.70
2022-07-29T11:48:28.499Z,2.75
2022-07-29T11:50:58.664Z,2.83
2022-07-29T11:53:28.981Z,2.75
2022-07-29T11:56:00.639Z,2.80
2022-07-29T11:58:29.356Z,2.78
2022-07-29T12:00:57.364Z,2.75
2022-07-29T12:03:35.303Z,2.47
2022-07-29T12:06:18.069Z,2.35
2022-07-29T12:08:46.403Z,2.58
2022-07-29T12:11:20.523Z,2.50
2022-07-29T12:13:49.417Z,2.78
2022-07-29T12:16:25.414Z,2.90
2022-07-29T12:18:58.101Z,2.60
2022-07-29T12:21:28.758Z,2.63
2022-07-29T12:24:01.848Z,2.70
2022-07-29T12:26:34.089Z,2.70
2022-07-29T12:29:03.438Z,2.67
2022-07-29T12:31:43.734Z,2.70
2022-07-29T12:34:13.014Z,2.70
2022-07-29T12:36:42.328Z,3.00
2022-07-29T12:39:11.017Z,2.90
2022-07-29T12:41:39.504Z,2.95
2022-07-29T12:44:07.165Z,2.80
2022-07-29T12:46:34.906Z,3.25
2022-07-29T12:49:04.084Z,2.22
2022-07-29T12:51:33.032Z,2.80
2022-07-29T12:54:05.812Z,2.63
2022-07-29T12:56:42.879Z,2.85
2022-07-29T12:59:18.514Z,2.70
2022-07-29T13:01:47.861Z,3.03
2022-07-29T13:04:25.908Z,2.90
2022-07-29T13:07:00.544Z,3.15
2022-07-29T13:09:38.287Z,2.97
2022-07-29T13:12:08.411Z,2.83
2022-07-29T13:14:36.774Z,3.05
2022-07-29T13:17:06.324Z,2.88
2022-07-29T13:19:35.731Z,2.92
2022-07-29T13:22:03.322Z,3.20
2022-07-29T13:24:32.359Z,3.13
2022-07-29T13:27:00.111Z,3.33
2022-07-29T13:29:31.554Z,3.22
2022-07-29T13:31:59.924Z,2.80
2022-07-29T13:34:28.286Z,3.20
2022-07-29T13:36:55.858Z,3.08
2022-07-29T13:39:23.415Z,2.97
2022-07-29T13:41:53.339Z,2.83
2022-07-29T13:44:20.999Z,3.00
2022-07-29T13:46:48.584Z,3.08
2022-07-29T13:49:16.293Z,3.38
2022-07-29T13:51:43.962Z,3.22
2022-07-29T13:54:11.541Z,3.25
2022-07-29T13:56:39.138Z,3.50
2022-07-29T13:59:08.599Z,3.80
2022-07-29T14:01:36.366Z,4.00
2022-07-29T14:04:04.180Z,4.10
2022-07-29T14:06:31.788Z,4.45
2022-07-29T14:08:59.376Z,3.70
2022-07-29T14:11:27.024Z,4.10
2022-07-29T14:13:54.626Z,3.80
2022-07-29T14:16:23.914Z,3.42
2022-07-29T14:18:51.554Z,2.92
2022-07-29T14:21:19.388Z,2.80
2022-07-29T14:23:47.023Z,2.67
2022-07-29T14:26:16.036Z,2.97
2022-07-29T14:28:49.387Z,3.20
2022-07-29T14:31:17.055Z,3.43
2022-07-29T14:33:49.131Z,3.30
2022-07-29T14:36:17.040Z,3.83
2022-07-29T14:38:44.659Z,3.63
2022-07-29T14:41:12.332Z,4.73
2022-07-29T14:43:39.912Z,3.70
2022-07-29T14:46:08.632Z,4.10
2022-07-29T14:48:36.355Z,4.27
2022-07-29T14:51:05.397Z,4.50
2022-07-29T14:53:32.975Z,3.87
2022-07-29T14:56:15.295Z,4.47
2022-07-29T14:58:51.579Z,4.47
2022-07-29T15:01:19.527Z,4.60
2022-07-29T15:03:47.144Z,5.27
2022-07-29T15:06:16.115Z,4.03
2022-07-29T15:08:43.732Z,4.43
2022-07-29T15:11:11.330Z,4.03
2022-07-29T15:13:38.930Z,3.43
2022-07-29T15:16:06.846Z,4.07
2022-07-29T15:18:34.508Z,3.70
2022-07-29T15:21:03.196Z,3.67
2022-07-29T15:23:32.179Z,3.17
2022-07-29T15:26:00.189Z,3.00
2022-07-29T15:28:27.896Z,3.27
2022-07-29T15:30:55.650Z,3.00
2022-07-29T15:33:24.460Z,2.77
2022-07-29T15:35:52.033Z,3.53
2022-07-29T15:38:19.780Z,2.90
2022-07-29T15:40:57.779Z,3.00
2022-07-29T15:43:26.580Z,2.97
2022-07-29T15:46:11.663Z,3.27
2022-07-29T15:48:40.961Z,3.20
2022-07-29T15:51:08.673Z,3.27
2022-07-29T15:53:36.255Z,3.60
2022-07-29T15:56:05.467Z,3.70
2022-07-29T15:58:33.061Z,3.87
2022-07-29T16:01:00.657Z,3.93
2022-07-29T16:03:28.401Z,4.20
2022-07-29T16:05:56.058Z,4.03
2022-07-29T16:08:23.638Z,4.10
2022-07-29T16:10:51.215Z,4.47
2022-07-29T16:13:20.810Z,4.50
2022-07-29T16:16:02.204Z,4.20
2022-07-29T16:18:30.777Z,4.30
2022-07-29T16:20:58.439Z,4.40
2022-07-29T16:23:26.003Z,4.10
2022-07-29T16:26:01.469Z,4.60
2022-07-29T16:28:30.768Z,4.37
2022-07-29T16:30:58.399Z,5.17
2022-07-29T16:33:26.019Z,4.83
2022-07-29T16:35:53.958Z,4.50
2022-07-29T16:38:21.611Z,4.37
2022-07-29T16:40:49.377Z,4.73
2022-07-29T16:43:17.028Z,7.23
2022-07-29T16:45:46.917Z,8.53
2022-07-29T16:48:15.335Z,6.20
2022-07-29T16:50:45.828Z,5.67
2022-07-29T16:53:13.460Z,4.20
2022-07-29T16:55:42.349Z,4.60
2022-07-29T16:58:10.299Z,4.93
2022-07-29T17:00:38.092Z,4.43
2022-07-29T17:03:07.140Z,4.00
2022-07-29T17:05:52.330Z,4.27
2022-07-29T17:08:21.929Z,4.20
2022-07-29T17:10:49.667Z,4.03
2022-07-29T17:13:17.249Z,4.20
2022-07-29T17:15:44.856Z,4.40
2022-07-29T17:18:13.840Z,3.70
2022-07-29T17:20:42.222Z,4.10
2022-07-29T17:23:09.822Z,4.00
2022-07-29T17:25:37.487Z,3.97
2022-07-29T17:28:05.190Z,3.80
2022-07-29T17:30:32.764Z,3.73
2022-07-29T17:33:00.327Z,3.80
2022-07-29T17:35:46.882Z,3.70
2022-07-29T17:38:14.449Z,3.43
2022-07-29T17:40:42.027Z,3.40
2022-07-29T17:43:10.217Z,3.37
2022-07-29T17:45:49.712Z,3.00
2022-07-29T17:48:18.648Z,2.93
2022-07-29T17:50:47.735Z,3.00
2022-07-29T17:53:16.160Z,3.03
2022-07-29T17:55:45.152Z,3.07
2022-07-29T17:58:12.820Z,3.10
2022-07-29T18:00:40.615Z,2.93
2022-07-29T18:03:08.269Z,2.47
2022-07-29T18:05:36.449Z,2.87
2022-07-29T18:08:05.674Z,3.13
2022-07-29T18:10:33.355Z,2.83
2022-07-29T18:13:00.949Z,3.37
2022-07-29T18:15:28.533Z,2.97
2022-07-29T18:17:57.729Z,2.80
2022-07-29T18:20:25.690Z,3.10
2022-07-29T18:22:53.303Z,3.00
2022-07-29T18:25:22.439Z,3.13
2022-07-29T18:27:50.056Z,2.80
2022-07-29T18:30:17.764Z,3.37
2022-07-29T18:33:04.912Z,2.97
2022-07-29T18:35:33.090Z,3.00
2022-07-29T18:38:03.049Z,2.90
2022-07-29T18:40:32.794Z,2.57
2022-07-29T18:43:00.368Z,2.80
2022-07-29T18:45:28.524Z,2.97
2022-07-29T18:47:56.505Z,2.97
2022-07-29T18:50:28.995Z,3.03
2022-07-29T18:52:58.319Z,2.80
2022-07-29T18:55:26.121Z,2.97
2022-07-29T18:57:57.150Z,3.00
2022-07-29T19:00:25.221Z,2.97
2022-07-29T19:02:53.318Z,2.90
2022-07-29T19:05:21.225Z,3.10
2022-07-29T19:07:48.835Z,3.00
2022-07-29T19:10:16.459Z,2.63
2022-07-29T19:12:44.036Z,2.60
2022-07-29T19:15:20.513Z,2.43
2022-07-29T19:17:49.194Z,2.80
2022-07-29T19:20:17.426Z,2.37
2022-07-29T19:22:45.009Z,2.33
2022-07-29T19:25:12.635Z,2.63
2022-07-29T19:27:41.293Z,2.60
2022-07-29T19:30:09.498Z,2.70
2022-07-29T19:32:38.780Z,2.90
2022-07-29T19:35:38.735Z,2.63
2022-07-29T19:38:06.329Z,2.67
2022-07-29T19:40:33.897Z,2.50
2022-07-29T19:43:01.461Z,3.00
2022-07-29T19:45:30.268Z,2.50
2022-07-29T19:48:01.752Z,2.77
2022-07-29T19:50:29.663Z,2.90
2022-07-29T19:52:57.336Z,2.87
2022-07-29T19:55:24.951Z,2.70
2022-07-29T19:57:53.090Z,2.73
2022-07-29T20:00:21.230Z,2.80
2022-07-29T20:02:48.899Z,2.20
2022-07-29T20:05:17.936Z,3.10
2022-07-29T20:07:46.877Z,3.93
2022-07-29T20:10:14.599Z,3.30
2022-07-29T20:12:42.776Z,3.30
2022-07-29T20:15:16.283Z,3.40
2022-07-29T20:17:44.424Z,2.90
2022-07-29T20:20:12.229Z,3.17
2022-07-29T20:22:41.169Z,3.40
2022-07-29T20:25:09.937Z,3.77
2022-07-29T20:27:40.263Z,4.40
2022-07-29T20:30:08.303Z,4.17
2022-07-29T20:32:36.223Z,3.53
2022-07-29T20:35:03.894Z,3.47
2022-07-29T20:37:32.547Z,2.90
2022-07-29T20:40:02.814Z,3.40
2022-07-29T20:42:30.479Z,3.80
2022-07-29T20:44:58.736Z,4.00
2022-07-29T20:47:26.391Z,3.40
2022-07-29T20:49:53.964Z,3.60
2022-07-29T20:52:21.688Z,2.97
2022-07-29T20:54:49.297Z,3.40
2022-07-29T20:57:18.285Z,4.30
2022-07-29T21:00:06.476Z,4.13
2022-07-29T21:02:34.354Z,6.53
2022-07-29T21:05:02.063Z,6.73
2022-07-29T21:07:29.667Z,6.87
2022-07-29T21:09:57.497Z,3.07
2022-07-29T21:12:26.495Z,4.23
2022-07-29T21:14:54.086Z,3.60
2022-07-29T21:17:22.553Z,3.00
2022-07-29T21:19:52.284Z,2.80
2022-07-29T21:22:21.627Z,2.60
2022-07-29T21:24:49.910Z,3.00
2022-07-29T21:27:35.051Z,2.93
2022-07-29T21:30:08.613Z,2.77
2022-07-29T21:32:36.197Z,2.83
2022-07-29T21:35:04.222Z,3.00
2022-07-29T21:37:49.872Z,4.00
2022-07-29T21:40:17.463Z,3.37
2022-07-29T21:42:45.599Z,3.17
2022-07-29T21:45:14.571Z,3.00
2022-07-29T21:47:42.163Z,2.80
2022-07-29T21:50:09.972Z,3.00
2022-07-29T21:52:37.572Z,3.07
2022-07-29T21:55:05.340Z,2.57
2022-07-29T21:57:33.116Z,3.07
2022-07-29T22:00:02.941Z,2.73
2022-07-29T22:02:41.538Z,3.03
2022-07-29T22:05:09.587Z,3.00
2022-07-29T22:07:54.219Z,4.60
2022-07-29T22:10:22.931Z,3.30
2022-07-29T22:12:50.849Z,2.47
2022-07-29T22:15:18.443Z,2.90
2022-07-29T22:17:47.703Z,3.50
2022-07-29T22:20:15.341Z,2.70
2022-07-29T22:22:42.961Z,2.63
2022-07-29T22:25:10.880Z,2.83
2022-07-29T22:27:38.868Z,2.57
2022-07-29T22:30:07.383Z,2.50
2022-07-29T22:32:35.199Z,2.50
2022-07-29T22:35:04.204Z,2.63
2022-07-29T22:37:31.773Z,2.83
2022-07-29T22:39:59.368Z,2.53
2022-07-29T22:42:26.934Z,2.50
2022-07-29T22:44:54.499Z,2.90
2022-07-29T22:47:46.030Z,2.60
2022-07-29T22:50:11.148Z,2.63
2022-07-29T22:52:38.743Z,2.63
2022-07-29T22:55:06.672Z,2.90
2022-07-29T22:57:34.297Z,2.63
2022-07-29T23:00:02.681Z,2.90
2022-07-29T23:02:30.288Z,3.03
2022-07-29T23:04:58.072Z,2.53
2022-07-29T23:07:27.051Z,2.53
2022-07-29T23:09:54.689Z,2.90
2022-07-29T23:12:22.256Z,2.53
2022-07-29T23:14:49.878Z,2.80
2022-07-29T23:17:17.520Z,2.40
2022-07-29T23:19:45.171Z,2.80
2022-07-29T23:22:12.809Z,2.30
2022-07-29T23:24:41.800Z,2.57
2022-07-29T23:27:09.728Z,2.57
2022-07-29T23:29:37.295Z,2.60
2022-07-29T23:32:05.147Z,2.60
2022-07-29T23:34:32.739Z,2.43
2022-07-29T23:37:00.569Z,2.63
2022-07-29T23:39:28.378Z,2.90
2022-07-29T23:41:57.351Z,2.47
2022-07-29T23:44:24.969Z,2.50
2022-07-29T23:46:52.620Z,2.60
2022-07-29T23:49:20.247Z,2.60
2022-07-29T23:51:47.912Z,2.50
2022-07-29T23:54:16.190Z,2.40
2022-07-29T23:56:43.756Z,3.00
2022-07-29T23:59:15.480Z,2.70
